Time;durP1;ratioP1;P1;durP2;ratioP2;P2;SDS_P1;SDS_P2;PMS_P1;PMS_P2;Temp;Humidity;BMP_temperature;BMP_pressure;BME280_temperature;BME280_humidity;BME280_pressure;Samples;Min_cycle;Max_cycle;Signal;HPM_P1;HPM_P2
2022/08/31 00:04:08;;;;;;;;;;;21.20;75.40;;;-147.18;100.00;67318.16;4955289;28;19980;-87
2022/08/31 00:06:35;;;;;;;;;;;21.20;75.90;;;-147.18;100.00;67318.16;4954485;29;19926;-87
2022/08/31 00:09:05;;;;;;;;;;;21.20;76.20;;;-147.18;100.00;67318.16;4952331;29;19927;-87
2022/08/31 00:11:34;;;;;;;;;;;21.10;76.50;;;-147.18;100.00;67318.16;4954165;28;20009;-87
2022/08/31 00:14:04;;;;;;;;;;;21.10;76.60;;;-147.18;100.00;67318.16;4954977;29;19930;-86
2022/08/31 00:16:37;;;;;;;;;;;21.20;76.90;;;-147.18;100.00;67318.16;4952875;29;19930;-87
2022/08/31 00:19:04;;;;;;;;;;;21.10;77.10;;;-147.18;100.00;67318.16;4955165;29;20013;-87
2022/08/31 00:21:32;;;;;;;;;;;21.10;77.50;;;-147.18;100.00;67318.16;4954542;29;19930;-87
2022/08/31 00:23:59;;;;;;;;;;;21.10;77.70;;;-147.18;100.00;67318.16;4953603;28;19926;-88
2022/08/31 00:26:26;;;;;;;;;;;21.10;78.20;;;-147.18;100.00;67318.16;4954490;28;20020;-87
2022/08/31 00:28:53;;;;;;;;;;;21.10;78.30;;;-147.18;100.00;67318.16;4953708;29;19922;-88
2022/08/31 00:31:20;;;;;;;;;;;21.10;78.50;;;-147.18;100.00;67318.16;4954674;29;19974;-88
2022/08/31 00:33:51;;;;;;;;;;;21.10;78.70;;;-147.18;100.00;67318.16;4953719;28;19928;-88
2022/08/31 00:36:20;;;;;;;;;;;21.10;79.00;;;-147.18;100.00;67318.16;4953346;29;20488;-87
2022/08/31 00:38:48;;;;;;;;;;;21.00;79.40;;;-147.18;100.00;67318.16;4954593;29;20001;-88
2022/08/31 00:41:18;;;;;;;;;;;21.00;79.60;;;-147.18;100.00;67318.16;4953493;29;19929;-87
2022/08/31 00:43:47;;;;;;;;;;;21.00;80.00;;;-147.18;100.00;67318.16;4952118;28;19922;-88
2022/08/31 00:46:17;;;;;;;;;;;21.00;80.00;;;-147.18;100.00;67318.16;4953514;28;20435;-87
2022/08/31 00:48:50;;;;;;;;;;;21.00;80.10;;;-147.18;100.00;67318.16;4954281;28;20013;-88
2022/08/31 00:51:19;;;;;;;;;;;21.00;80.50;;;-147.18;100.00;67318.16;4953480;29;20470;-87
2022/08/31 00:53:47;;;;;;;;;;;21.00;80.70;;;-147.18;100.00;67318.16;4952319;29;20022;-87
2022/08/31 00:56:15;;;;;;;;;;;21.00;80.90;;;-147.18;100.00;67318.16;4952330;28;19930;-87
2022/08/31 00:58:43;;;;;;;;;;;21.00;81.20;;;-147.18;100.00;67318.16;4952028;28;19938;-88
2022/08/31 01:01:11;;;;;;;;;;;21.00;81.20;;;-147.18;100.00;67318.16;4953732;28;19922;-88
2022/08/31 01:03:38;;;;;;;;;;;21.00;81.50;;;-147.18;100.00;67318.16;4951845;28;19948;-88
2022/08/31 01:06:06;;;;;;;;;;;21.00;81.70;;;-147.18;100.00;67318.16;4953018;29;19930;-88
2022/08/31 01:08:34;;;;;;;;;;;20.90;81.90;;;-147.18;100.00;67318.16;4952928;29;20012;-87
2022/08/31 01:11:02;;;;;;;;;;;20.90;82.10;;;-147.18;100.00;67318.16;4953251;28;20291;-87
2022/08/31 01:13:30;;;;;;;;;;;20.90;82.10;;;-147.18;100.00;67318.16;4952820;28;19922;-88
2022/08/31 01:16:00;;;;;;;;;;;20.90;82.40;;;-147.18;100.00;67318.16;4951709;29;20399;-87
2022/08/31 01:18:28;;;;;;;;;;;20.90;82.50;;;-147.18;100.00;67318.16;4954088;28;19926;-87
2022/08/31 01:21:02;;;;;;;;;;;20.90;82.80;;;-147.18;100.00;67318.16;4951625;29;19926;-88
2022/08/31 01:23:33;;;;;;;;;;;20.90;83.00;;;-147.18;100.00;67318.16;4953162;29;19953;-88
2022/08/31 01:26:01;;;;;;;;;;;20.80;82.90;;;-147.18;100.00;67318.16;4953341;29;19930;-88
2022/08/31 01:28:28;;;;;;;;;;;20.80;83.30;;;-147.18;100.00;67318.16;4951388;28;19922;-88
2022/08/31 01:31:02;;;;;;;;;;;20.80;83.30;;;-147.18;100.00;67318.16;4952305;29;19922;-87
2022/08/31 01:33:32;;;;;;;;;;;20.80;83.40;;;-147.18;100.00;67318.16;4952463;29;19965;-88
2022/08/31 01:36:01;;;;;;;;;;;20.80;83.50;;;-147.18;100.00;67318.16;4952036;28;19922;-88
2022/08/31 01:38:29;;;;;;;;;;;20.80;83.80;;;-147.18;100.00;67318.16;4952473;28;19926;-88
2022/08/31 01:41:00;;;;;;;;;;;20.80;83.80;;;-147.18;100.00;67318.16;4952169;29;19926;-87
2022/08/31 01:43:28;;;;;;;;;;;20.80;83.90;;;-147.18;100.00;67318.16;4952245;28;19926;-87
2022/08/31 01:45:55;;;;;;;;;;;20.80;84.10;;;-147.18;100.00;67318.16;4951831;29;19922;-87
2022/08/31 01:48:24;;;;;;;;;;;20.80;84.30;;;-147.18;100.00;67318.16;4952207;28;20038;-87
2022/08/31 01:50:51;;;;;;;;;;;20.80;84.50;;;-147.18;100.00;67318.16;4951476;28;19930;-87
2022/08/31 01:53:18;;;;;;;;;;;20.80;84.50;;;-147.18;100.00;67318.16;4951622;28;20569;-87
2022/08/31 01:55:47;;;;;;;;;;;20.70;84.50;;;-147.18;100.00;67318.16;4951525;29;19922;-87
2022/08/31 01:58:15;;;;;;;;;;;20.80;84.70;;;-147.18;100.00;67318.16;4951679;28;19922;-88
2022/08/31 02:01:02;;;;;;;;;;;20.70;84.90;;;-147.18;100.00;67318.16;4953643;29;20492;-88
2022/08/31 02:03:29;;;;;;;;;;;20.70;85.00;;;-147.18;100.00;67318.16;4951658;29;19929;-87
2022/08/31 02:05:57;;;;;;;;;;;20.70;85.00;;;-147.18;100.00;67318.16;4950904;28;20542;-88
2022/08/31 02:08:24;;;;;;;;;;;20.70;85.10;;;-147.18;100.00;67318.16;4951707;29;20391;-87
2022/08/31 02:10:53;;;;;;;;;;;20.70;85.20;;;-147.18;100.00;67318.16;4950850;28;19926;-88
2022/08/31 02:13:20;;;;;;;;;;;20.70;85.40;;;-147.18;100.00;67318.16;4951398;29;19923;-88
2022/08/31 02:15:47;;;;;;;;;;;20.70;85.50;;;-147.18;100.00;67318.16;4951382;28;19948;-87
2022/08/31 02:18:15;;;;;;;;;;;20.70;85.60;;;-147.18;100.00;67318.16;4950885;28;19936;-87
2022/08/31 02:20:42;;;;;;;;;;;20.70;85.50;;;-147.18;100.00;67318.16;4950818;29;19930;-88
2022/08/31 02:23:10;;;;;;;;;;;20.60;85.60;;;-147.18;100.00;67318.16;4946347;28;19922;-88
2022/08/31 02:25:37;;;;;;;;;;;20.60;85.80;;;-147.18;100.00;67318.16;4951560;29;20017;-88
2022/08/31 02:28:06;;;;;;;;;;;20.60;85.80;;;-147.18;100.00;67318.16;4951350;29;19957;-88
2022/08/31 02:30:33;;;;;;;;;;;20.60;85.90;;;-147.18;100.00;67318.16;4950293;29;19930;-88
2022/08/31 02:33:00;;;;;;;;;;;20.60;86.00;;;-147.18;100.00;67318.16;4951419;28;19953;-88
2022/08/31 02:35:27;;;;;;;;;;;20.60;86.10;;;-147.18;100.00;67318.16;4950930;29;19926;-88
2022/08/31 02:37:54;;;;;;;;;;;20.60;86.10;;;-147.18;100.00;67318.16;4951359;28;19923;-88
2022/08/31 02:40:21;;;;;;;;;;;20.60;86.20;;;-147.18;100.00;67318.16;4950350;29;19922;-88
2022/08/31 02:42:49;;;;;;;;;;;20.50;86.20;;;-147.18;100.00;67318.16;4951508;28;19962;-88
2022/08/31 02:45:18;;;;;;;;;;;20.50;86.20;;;-147.18;100.00;67318.16;4950915;29;19929;-88
2022/08/31 02:47:45;;;;;;;;;;;20.50;86.30;;;-147.18;100.00;67318.16;4951796;29;19922;-88
2022/08/31 02:50:19;;;;;;;;;;;20.50;86.30;;;-147.18;100.00;67318.16;4951083;29;20290;-88
2022/08/31 02:52:48;;;;;;;;;;;20.50;86.50;;;-147.18;100.00;67318.16;4950290;28;19926;-88
2022/08/31 02:55:16;;;;;;;;;;;20.50;86.60;;;-147.18;100.00;67318.16;4950456;28;19930;-88
2022/08/31 02:57:43;;;;;;;;;;;20.40;86.70;;;-147.18;100.00;67318.16;4951145;29;19976;-88
2022/08/31 03:00:12;;;;;;;;;;;20.40;86.70;;;-147.18;100.00;67318.16;4950806;29;20405;-87
2022/08/31 03:02:42;;;;;;;;;;;20.40;86.60;;;-147.18;100.00;67318.16;4950020;29;19930;-88
2022/08/31 03:05:11;;;;;;;;;;;20.40;86.80;;;-147.18;100.00;67318.16;4950154;28;19981;-88
2022/08/31 03:07:38;;;;;;;;;;;20.40;86.90;;;-147.18;100.00;67318.16;4950142;29;19956;-88
2022/08/31 03:10:07;;;;;;;;;;;20.40;87.00;;;-147.18;100.00;67318.16;4950722;29;19957;-88
2022/08/31 03:12:34;;;;;;;;;;;20.40;87.00;;;-147.18;100.00;67318.16;4949691;28;19923;-87
2022/08/31 03:15:02;;;;;;;;;;;20.40;87.20;;;-147.18;100.00;67318.16;4949815;28;19973;-88
2022/08/31 03:17:29;;;;;;;;;;;20.40;87.30;;;-147.18;100.00;67318.16;4951132;29;20414;-88
2022/08/31 03:19:59;;;;;;;;;;;20.30;87.30;;;-147.18;100.00;67318.16;4950605;29;19923;-88
2022/08/31 03:22:27;;;;;;;;;;;20.30;87.30;;;-147.18;100.00;67318.16;5057907;23;19984;-82
2022/08/31 03:24:54;;;;;;;;;;;20.30;87.50;;;-147.18;100.00;67318.16;4993574;28;19932;-82
2022/08/31 03:27:23;;;;;;;;;;;20.30;87.50;;;-147.18;100.00;67318.16;4977207;28;20405;-82
2022/08/31 03:29:50;;;;;;;;;;;20.30;87.50;;;-147.18;100.00;67318.16;4976911;28;20024;-82
2022/08/31 03:32:22;;;;;;;;;;;20.30;87.50;;;-147.18;100.00;67318.16;4972330;28;19922;-82
2022/08/31 03:34:54;;;;;;;;;;;20.30;87.70;;;-147.18;100.00;67318.16;4957604;28;20298;-82
2022/08/31 03:37:22;;;;;;;;;;;20.30;87.70;;;-147.18;100.00;67318.16;4954785;28;19922;-82
2022/08/31 03:39:50;;;;;;;;;;;20.30;87.80;;;-147.18;100.00;67318.16;4957695;28;19929;-82
2022/08/31 03:42:17;;;;;;;;;;;20.30;87.80;;;-147.18;100.00;67318.16;4957875;28;19964;-82
2022/08/31 03:44:44;;;;;;;;;;;20.30;87.80;;;-147.18;100.00;67318.16;4957111;28;20000;-82
2022/08/31 03:47:19;;;;;;;;;;;20.20;87.90;;;-147.18;100.00;67318.16;4957658;28;20013;-82
2022/08/31 03:49:47;;;;;;;;;;;20.20;87.90;;;-147.18;100.00;67318.16;4957588;28;19988;-82
2022/08/31 03:52:20;;;;;;;;;;;20.20;87.90;;;-147.18;100.00;67318.16;4957340;28;20364;-82
2022/08/31 03:54:54;;;;;;;;;;;20.20;88.10;;;-147.18;100.00;67318.16;4956611;28;20357;-82
2022/08/31 03:57:21;;;;;;;;;;;20.20;88.30;;;-147.18;100.00;67318.16;4959772;28;19926;-82
2022/08/31 03:59:48;;;;;;;;;;;20.20;88.30;;;-147.18;100.00;67318.16;4957363;28;20032;-82
2022/08/31 04:02:18;;;;;;;;;;;20.20;88.40;;;-147.18;100.00;67318.16;4974320;28;19929;-82
2022/08/31 04:05:12;;;;;;;;;;;20.20;88.30;;;-147.18;100.00;67318.16;4946545;28;19926;-82
2022/08/31 04:07:57;;;;;;;;;;;20.10;88.40;;;-147.18;100.00;67318.16;4974322;28;20321;-82
2022/08/31 04:10:45;;;;;;;;;;;20.10;88.50;;;-147.18;100.00;67318.16;4975116;28;19929;-82
2022/08/31 04:13:23;;;;;;;;;;;20.10;88.60;;;-147.18;100.00;67318.16;4984671;28;19922;-82
2022/08/31 04:16:18;;;;;;;;;;;20.10;88.80;;;-147.18;100.00;67318.16;4970556;28;19926;-83
2022/08/31 04:18:46;;;;;;;;;;;20.10;88.80;;;-147.18;100.00;67318.16;4980704;28;19922;-79
2022/08/31 04:21:14;;;;;;;;;;;20.10;88.90;;;-147.18;100.00;67318.16;4956954;28;19996;-78
2022/08/31 04:23:42;;;;;;;;;;;20.10;89.00;;;-147.18;100.00;67318.16;4956322;28;19951;-78
2022/08/31 04:26:18;;;;;;;;;;;20.00;88.80;;;-147.18;100.00;67318.16;4956765;28;20021;-78
2022/08/31 04:28:46;;;;;;;;;;;20.00;88.90;;;-147.18;100.00;67318.16;4986145;28;20304;-80
2022/08/31 04:31:13;;;;;;;;;;;20.00;89.00;;;-147.18;100.00;67318.16;4969292;28;19980;-79
2022/08/31 04:33:41;;;;;;;;;;;20.00;89.00;;;-147.18;100.00;67318.16;4955834;28;20402;-79
2022/08/31 04:36:11;;;;;;;;;;;20.00;89.10;;;-147.18;100.00;67318.16;4956839;28;19929;-79
2022/08/31 04:38:39;;;;;;;;;;;19.90;89.60;;;-147.18;100.00;67318.16;4983912;28;19933;-80
2022/08/31 04:41:10;;;;;;;;;;;19.90;89.60;;;-147.18;100.00;67318.16;4975934;28;20017;-81
2022/08/31 04:43:39;;;;;;;;;;;19.90;89.70;;;-147.18;100.00;67318.16;4967839;28;20306;-80
2022/08/31 04:46:08;;;;;;;;;;;19.80;89.80;;;-147.18;100.00;67318.16;4956260;28;19922;-80
2022/08/31 04:48:35;;;;;;;;;;;19.80;90.00;;;-147.18;100.00;67318.16;4956718;28;19973;-80
2022/08/31 04:51:04;;;;;;;;;;;19.80;89.90;;;-147.18;100.00;67318.16;4955349;28;19928;-80
2022/08/31 04:53:31;;;;;;;;;;;19.80;90.00;;;-147.18;100.00;67318.16;4955033;28;20417;-80
2022/08/31 04:55:58;;;;;;;;;;;19.70;90.00;;;-147.18;100.00;67318.16;4971192;28;19934;-80
2022/08/31 04:58:25;;;;;;;;;;;19.70;90.00;;;-147.18;100.00;67318.16;4960649;28;19965;-80
2022/08/31 05:00:54;;;;;;;;;;;19.70;90.00;;;-147.18;100.00;67318.16;4974122;28;19928;-80
2022/08/31 05:03:51;;;;;;;;;;;19.70;90.10;;;-147.18;100.00;67318.16;4912301;28;20416;-79
2022/08/31 05:06:20;;;;;;;;;;;19.70;90.20;;;-147.18;100.00;67318.16;4954615;28;20327;-78
2022/08/31 05:08:48;;;;;;;;;;;19.60;90.00;;;-147.18;100.00;67318.16;4955764;28;19931;-78
2022/08/31 05:11:18;;;;;;;;;;;19.60;90.00;;;-147.18;100.00;67318.16;4956340;28;19985;-80
2022/08/31 05:13:45;;;;;;;;;;;19.60;90.00;;;-147.18;100.00;67318.16;4959258;28;19926;-80
2022/08/31 05:16:14;;;;;;;;;;;19.60;89.80;;;-147.18;100.00;67318.16;4954444;28;20167;-82
2022/08/31 05:18:43;;;;;;;;;;;19.60;89.70;;;-147.18;100.00;67318.16;4950889;28;19926;-83
2022/08/31 05:21:11;;;;;;;;;;;19.60;89.80;;;-147.18;100.00;67318.16;4955434;28;20013;-83
2022/08/31 05:23:38;;;;;;;;;;;19.60;89.80;;;-147.18;100.00;67318.16;4953057;28;20521;-82
2022/08/31 05:26:06;;;;;;;;;;;19.60;89.80;;;-147.18;100.00;67318.16;4959710;28;20287;-83
2022/08/31 05:28:34;;;;;;;;;;;19.60;89.60;;;-147.18;100.00;67318.16;4955287;28;19921;-84
2022/08/31 05:31:02;;;;;;;;;;;19.60;89.70;;;-147.18;100.00;67318.16;4978952;28;19922;-84
2022/08/31 05:33:39;;;;;;;;;;;19.60;89.60;;;-147.18;100.00;67318.16;4959684;28;20014;-84
2022/08/31 05:36:07;;;;;;;;;;;19.60;89.50;;;-147.18;100.00;67318.16;4954213;28;20423;-84
2022/08/31 05:38:35;;;;;;;;;;;19.60;89.60;;;-147.18;100.00;67318.16;4973291;28;19932;-84
2022/08/31 05:41:02;;;;;;;;;;;19.60;89.60;;;-147.18;100.00;67318.16;4954707;28;19922;-84
2022/08/31 05:43:29;;;;;;;;;;;19.60;89.60;;;-147.18;100.00;67318.16;4973081;28;19952;-84
2022/08/31 05:45:57;;;;;;;;;;;19.60;89.70;;;-147.18;100.00;67318.16;4971226;28;20294;-84
2022/08/31 05:48:26;;;;;;;;;;;19.60;89.60;;;-147.18;100.00;67318.16;4959647;28;20054;-83
2022/08/31 05:50:55;;;;;;;;;;;19.60;89.70;;;-147.18;100.00;67318.16;4964712;28;19958;-83
2022/08/31 05:53:22;;;;;;;;;;;19.60;89.40;;;-147.18;100.00;67318.16;4949520;28;20001;-83
2022/08/31 05:55:49;;;;;;;;;;;19.60;89.40;;;-147.18;100.00;67318.16;4954103;28;19930;-83
2022/08/31 05:58:16;;;;;;;;;;;19.60;89.40;;;-147.18;100.00;67318.16;4956604;28;19976;-84
2022/08/31 06:00:44;;;;;;;;;;;19.60;89.50;;;-147.18;100.00;67318.16;4953272;28;20378;-84
2022/08/31 06:03:43;;;;;;;;;;;19.60;89.50;;;-147.18;100.00;67318.16;4969975;28;19930;-84
2022/08/31 06:06:13;;;;;;;;;;;19.70;89.30;;;-147.18;100.00;67318.16;4952183;28;19926;-84
2022/08/31 06:08:41;;;;;;;;;;;19.70;89.10;;;-147.18;100.00;67318.16;4953081;28;19926;-84
2022/08/31 06:11:18;;;;;;;;;;;19.70;88.90;;;-147.18;100.00;67318.16;4954560;28;19925;-83
2022/08/31 06:13:46;;;;;;;;;;;19.70;89.20;;;-147.18;100.00;67318.16;4952568;28;19926;-83
2022/08/31 06:16:16;;;;;;;;;;;19.70;88.80;;;-147.18;100.00;67318.16;4951099;28;20821;-83
2022/08/31 06:18:49;;;;;;;;;;;19.70;88.80;;;-147.18;100.00;67318.16;4957220;28;19965;-84
2022/08/31 06:21:20;;;;;;;;;;;19.70;88.60;;;-147.18;100.00;67318.16;4954154;28;20008;-83
2022/08/31 06:23:49;;;;;;;;;;;19.80;88.40;;;-147.18;100.00;67318.16;4952710;28;20383;-83
2022/08/31 06:26:18;;;;;;;;;;;19.80;89.00;;;-147.18;100.00;67318.16;4953004;28;20350;-83
2022/08/31 06:28:48;;;;;;;;;;;19.80;88.50;;;-147.18;100.00;67318.16;4953740;28;19926;-83
2022/08/31 06:31:17;;;;;;;;;;;19.80;88.20;;;-147.18;100.00;67318.16;4947526;28;20024;-84
2022/08/31 06:33:44;;;;;;;;;;;19.90;88.30;;;-147.18;100.00;67318.16;4953032;28;19958;-83
2022/08/31 06:36:21;;;;;;;;;;;19.90;88.50;;;-147.18;100.00;67318.16;4945907;28;20024;-83
2022/08/31 06:39:11;;;;;;;;;;;20.00;88.90;;;-147.18;100.00;67318.16;4966380;28;19926;-83
2022/08/31 06:41:55;;;;;;;;;;;20.00;88.30;;;-147.18;100.00;67318.16;4952811;28;20778;-83
2022/08/31 06:44:32;;;;;;;;;;;20.00;87.90;;;-147.18;100.00;67318.16;4947249;28;19929;-83
2022/08/31 06:47:08;;;;;;;;;;;20.00;87.70;;;-147.18;100.00;67318.16;4951499;28;19930;-84
2022/08/31 06:49:39;;;;;;;;;;;20.00;87.70;;;-147.18;100.00;67318.16;4953418;28;19968;-83
2022/08/31 06:52:07;;;;;;;;;;;20.00;87.80;;;-147.18;100.00;67318.16;4952550;28;19926;-84
2022/08/31 06:54:36;;;;;;;;;;;20.00;87.70;;;-147.18;100.00;67318.16;4952687;28;19926;-80
2022/08/31 06:57:22;;;;;;;;;;;20.00;87.90;;;-147.18;100.00;67318.16;4969894;28;19937;-80
2022/08/31 07:00:08;;;;;;;;;;;20.00;88.00;;;-147.18;100.00;67318.16;4970760;28;19929;-80
2022/08/31 07:02:49;;;;;;;;;;;20.00;88.10;;;-147.18;100.00;67318.16;4953311;28;19922;-80
2022/08/31 07:05:16;;;;;;;;;;;20.10;88.00;;;-147.18;100.00;67318.16;4948264;28;19977;-80
2022/08/31 07:07:47;;;;;;;;;;;20.10;87.80;;;-147.18;100.00;67318.16;4966948;28;20020;-80
2022/08/31 07:10:14;;;;;;;;;;;20.10;87.90;;;-147.18;100.00;67318.16;4951522;28;19922;-80
2022/08/31 07:12:41;;;;;;;;;;;20.20;87.80;;;-147.18;100.00;67318.16;4943292;28;20363;-80
2022/08/31 07:15:11;;;;;;;;;;;20.20;88.00;;;-147.18;100.00;67318.16;4964837;28;19930;-80
2022/08/31 07:17:38;;;;;;;;;;;20.30;87.40;;;-147.18;100.00;67318.16;4952496;28;19922;-81
2022/08/31 07:20:07;;;;;;;;;;;20.30;87.50;;;-147.18;100.00;67318.16;4953366;28;20024;-80
2022/08/31 07:22:35;;;;;;;;;;;20.30;87.20;;;-147.18;100.00;67318.16;4953747;28;19928;-80
2022/08/31 07:25:25;;;;;;;;;;;20.30;87.40;;;-147.18;100.00;67318.16;4951705;28;20341;-80
2022/08/31 07:27:54;;;;;;;;;;;20.40;87.40;;;-147.18;100.00;67318.16;4966696;28;20577;-80
2022/08/31 07:30:21;;;;;;;;;;;20.40;87.00;;;-147.18;100.00;67318.16;4952775;28;19973;-80
2022/08/31 07:32:49;;;;;;;;;;;20.40;87.00;;;-147.18;100.00;67318.16;4953528;28;19922;-80
2022/08/31 07:35:17;;;;;;;;;;;20.50;87.20;;;-147.18;100.00;67318.16;4953917;28;19926;-80
2022/08/31 07:43:27;;;;;;;;;;;20.70;87.00;;;-147.18;100.00;67318.16;4951936;28;20341;-80
2022/08/31 07:45:54;;;;;;;;;;;20.60;86.50;;;-147.18;100.00;67318.16;4969906;28;19937;-80
2022/08/31 07:48:26;;;;;;;;;;;20.60;86.70;;;-147.18;100.00;67318.16;4957037;28;20289;-80
2022/08/31 07:51:22;;;;;;;;;;;20.70;86.80;;;-147.18;100.00;67318.16;4942915;28;19922;-80
2022/08/31 07:54:17;;;;;;;;;;;20.60;86.70;;;-147.18;100.00;67318.16;4968624;28;20064;-80
2022/08/31 07:57:05;;;;;;;;;;;20.70;86.90;;;-147.18;100.00;67318.16;4969496;28;19933;-81
2022/08/31 07:59:33;;;;;;;;;;;20.70;87.00;;;-147.18;100.00;67318.16;4953056;28;20382;-80
2022/08/31 08:02:02;;;;;;;;;;;20.70;87.00;;;-147.18;100.00;67318.16;4953181;28;19929;-80
2022/08/31 08:04:30;;;;;;;;;;;20.70;87.10;;;-147.18;100.00;67318.16;4951622;28;20374;-81
2022/08/31 08:06:59;;;;;;;;;;;20.80;86.40;;;-147.18;100.00;67318.16;4970673;28;19926;-81
2022/08/31 08:09:44;;;;;;;;;;;20.80;86.20;;;-147.18;100.00;67318.16;4979842;28;19929;-80
2022/08/31 08:12:41;;;;;;;;;;;20.80;85.90;;;-147.18;100.00;67318.16;4955174;29;19960;-79
2022/08/31 08:15:15;;;;;;;;;;;20.90;86.30;;;-147.18;100.00;67318.16;4961076;28;19937;-79
2022/08/31 08:18:03;;;;;;;;;;;20.90;86.40;;;-147.18;100.00;67318.16;4961872;28;19926;-79
2022/08/31 08:20:35;;;;;;;;;;;20.90;86.10;;;-147.18;100.00;67318.16;4956306;28;19929;-79
2022/08/31 08:23:04;;;;;;;;;;;20.90;86.30;;;-147.18;100.00;67318.16;4963550;28;20401;-79
2022/08/31 08:25:34;;;;;;;;;;;20.90;86.10;;;-147.18;100.00;67318.16;4966694;28;19926;-79
2022/08/31 08:28:30;;;;;;;;;;;21.00;86.20;;;-147.18;100.00;67318.16;4943850;28;19925;-80
2022/08/31 08:31:00;;;;;;;;;;;21.00;86.70;;;-147.18;100.00;67318.16;4954673;28;20432;-80
2022/08/31 08:33:29;;;;;;;;;;;21.10;86.60;;;-147.18;100.00;67318.16;4963868;28;19945;-80
2022/08/31 08:36:01;;;;;;;;;;;21.10;86.80;;;-147.18;100.00;67318.16;4954227;28;20244;-80
2022/08/31 08:38:30;;;;;;;;;;;21.10;86.00;;;-147.18;100.00;67318.16;4955707;28;19922;-80
2022/08/31 08:41:00;;;;;;;;;;;21.10;86.20;;;-147.18;100.00;67318.16;4948437;28;19933;-79
2022/08/31 08:43:31;;;;;;;;;;;21.20;86.70;;;-147.18;100.00;67318.16;4948664;28;19926;-77
2022/08/31 08:45:58;;;;;;;;;;;21.20;86.40;;;-147.18;100.00;67318.16;4948538;28;20438;-78
2022/08/31 08:48:33;;;;;;;;;;;21.30;86.40;;;-147.18;100.00;67318.16;4965072;28;19922;-80
2022/08/31 08:51:03;;;;;;;;;;;21.30;85.90;;;-147.18;100.00;67318.16;4949376;28;19929;-80
2022/08/31 08:53:46;;;;;;;;;;;21.30;85.60;;;-147.18;100.00;67318.16;4952187;28;19929;-80
2022/08/31 08:56:22;;;;;;;;;;;21.30;85.80;;;-147.18;100.00;67318.16;4965614;28;19922;-80
2022/08/31 08:58:51;;;;;;;;;;;21.30;86.00;;;-147.18;100.00;67318.16;4952440;28;20021;-80
2022/08/31 09:01:25;;;;;;;;;;;21.40;86.10;;;-147.18;100.00;67318.16;4946871;28;19928;-79
2022/08/31 09:04:00;;;;;;;;;;;21.40;85.40;;;-147.18;100.00;67318.16;4940804;28;19926;-80
2022/08/31 09:07:10;;;;;;;;;;;21.40;85.40;;;-147.18;100.00;67318.16;4964640;28;19940;-79
2022/08/31 09:09:42;;;;;;;;;;;21.40;85.40;;;-147.18;100.00;67318.16;4946425;29;20029;-80
2022/08/31 09:12:23;;;;;;;;;;;21.50;85.50;;;-147.18;100.00;67318.16;4936928;29;19929;-80
2022/08/31 09:15:14;;;;;;;;;;;21.50;84.70;;;-147.18;100.00;67318.16;4940146;28;19941;-80
2022/08/31 09:17:48;;;;;;;;;;;21.50;84.70;;;-147.18;100.00;67318.16;4954811;28;19928;-80
2022/08/31 09:20:16;;;;;;;;;;;21.50;85.60;;;-147.18;100.00;67318.16;4954253;28;19922;-80
2022/08/31 09:22:49;;;;;;;;;;;21.50;84.70;;;-147.18;100.00;67318.16;4979641;23;19964;-79
2022/08/31 09:25:25;;;;;;;;;;;21.50;84.80;;;-147.18;100.00;67318.16;5035276;28;19931;-81
2022/08/31 09:28:34;;;;;;;;;;;21.50;84.80;;;-147.18;100.00;67318.16;5009337;28;19925;-82
2022/08/31 09:31:03;;;;;;;;;;;21.60;85.10;;;-147.18;100.00;67318.16;5011973;28;19925;-82
2022/08/31 09:33:33;;;;;;;;;;;21.60;85.00;;;-147.18;100.00;67318.16;5015257;28;20016;-82
2022/08/31 09:36:15;;;;;;;;;;;21.60;85.60;;;-147.18;100.00;67318.16;5014116;28;19928;-82
2022/08/31 09:38:44;;;;;;;;;;;21.70;85.20;;;-147.18;100.00;67318.16;5029523;28;19939;-82
2022/08/31 09:41:29;;;;;;;;;;;21.70;85.50;;;-147.18;100.00;67318.16;5018818;28;19975;-81
2022/08/31 09:44:15;;;;;;;;;;;21.80;84.90;;;-147.18;100.00;67318.16;5014861;28;19961;-81
2022/08/31 09:46:49;;;;;;;;;;;21.80;85.00;;;-147.18;100.00;67318.16;5014436;28;20448;-82
2022/08/31 09:49:19;;;;;;;;;;;21.70;84.90;;;-147.18;100.00;67318.16;5013416;28;19929;-81
2022/08/31 09:51:47;;;;;;;;;;;21.80;85.10;;;-147.18;100.00;67318.16;5011755;28;19921;-81
2022/08/31 09:57:05;;;;;;;;;;;21.80;84.80;;;-147.18;100.00;67318.16;5020909;28;19924;-79
2022/08/31 09:59:38;;;;;;;;;;;21.80;85.10;;;-147.18;100.00;67318.16;5014275;28;19956;-79
2022/08/31 10:02:11;;;;;;;;;;;21.80;85.00;;;-147.18;100.00;67318.16;5014142;28;19968;-79
2022/08/31 10:04:49;;;;;;;;;;;21.90;85.40;;;-147.18;100.00;67318.16;5011460;28;20354;-79
2022/08/31 10:07:28;;;;;;;;;;;21.90;85.10;;;-147.18;100.00;67318.16;5020662;28;19929;-78
2022/08/31 10:09:58;;;;;;;;;;;21.90;85.00;;;-147.18;100.00;67318.16;5012032;28;19925;-77
2022/08/31 10:12:36;;;;;;;;;;;22.00;85.40;;;-147.18;100.00;67318.16;5021785;28;20015;-77
2022/08/31 10:15:10;;;;;;;;;;;22.00;85.40;;;-147.18;100.00;67318.16;5024763;28;19978;-77
2022/08/31 10:17:44;;;;;;;;;;;22.00;85.00;;;-147.18;100.00;67318.16;5010898;28;19964;-78
2022/08/31 10:20:15;;;;;;;;;;;22.00;85.20;;;-147.18;100.00;67318.16;5011302;28;20509;-78
2022/08/31 10:22:47;;;;;;;;;;;22.10;85.20;;;-147.18;100.00;67318.16;5011092;28;19928;-77
2022/08/31 10:25:21;;;;;;;;;;;22.10;85.10;;;-147.18;100.00;67318.16;5024574;28;20301;-79
2022/08/31 10:27:54;;;;;;;;;;;22.20;85.10;;;-147.18;100.00;67318.16;5028115;28;19979;-80
2022/08/31 10:30:28;;;;;;;;;;;22.20;84.90;;;-147.18;100.00;67318.16;5030286;28;19928;-76
2022/08/31 10:33:04;;;;;;;;;;;22.20;84.80;;;-147.18;100.00;67318.16;5028970;28;19956;-77
2022/08/31 10:35:36;;;;;;;;;;;22.30;85.80;;;-147.18;100.00;67318.16;5017584;28;19949;-77
2022/08/31 10:38:09;;;;;;;;;;;22.30;85.10;;;-147.18;100.00;67318.16;5030789;28;19929;-77
2022/08/31 10:40:43;;;;;;;;;;;22.30;85.20;;;-147.18;100.00;67318.16;5030766;28;19932;-77
2022/08/31 10:43:17;;;;;;;;;;;22.40;85.10;;;-147.18;100.00;67318.16;5030455;28;19927;-77
2022/08/31 10:45:47;;;;;;;;;;;22.40;85.00;;;-147.18;100.00;67318.16;5026321;28;19979;-79
2022/08/31 10:48:19;;;;;;;;;;;22.40;85.00;;;-147.18;100.00;67318.16;5030587;28;19924;-77
2022/08/31 10:50:51;;;;;;;;;;;22.50;84.50;;;-147.18;100.00;67318.16;5030307;28;20566;-77
2022/08/31 10:53:43;;;;;;;;;;;22.50;84.00;;;-147.18;100.00;67318.16;5030372;28;19964;-77
2022/08/31 10:56:14;;;;;;;;;;;22.50;84.30;;;-147.18;100.00;67318.16;5015892;28;20008;-77
2022/08/31 10:58:56;;;;;;;;;;;22.50;84.40;;;-147.18;100.00;67318.16;5010621;28;20079;-77
2022/08/31 11:01:28;;;;;;;;;;;22.60;84.20;;;-147.18;100.00;67318.16;5016810;28;19921;-81
2022/08/31 11:04:28;;;;;;;;;;;22.60;84.00;;;-147.18;100.00;67318.16;5012460;28;19925;-85
2022/08/31 11:07:00;;;;;;;;;;;22.60;83.80;;;-147.18;100.00;67318.16;5011619;28;19951;-78
2022/08/31 11:09:33;;;;;;;;;;;22.60;83.50;;;-147.18;100.00;67318.16;5010024;28;20035;-80
2022/08/31 11:12:05;;;;;;;;;;;22.60;83.90;;;-147.18;100.00;67318.16;5010845;28;19926;-81
2022/08/31 11:15:08;;;;;;;;;;;22.70;84.00;;;-147.18;100.00;67318.16;5013782;28;20020;-81
2022/08/31 11:17:48;;;;;;;;;;;22.70;83.00;;;-147.18;100.00;67318.16;5019474;28;19921;-81
2022/08/31 11:20:29;;;;;;;;;;;22.80;82.20;;;-147.18;100.00;67318.16;5030316;28;19928;-79
2022/08/31 11:23:17;;;;;;;;;;;22.80;82.00;;;-147.18;100.00;67318.16;5028640;28;19963;-78
2022/08/31 11:26:09;;;;;;;;;;;22.80;83.20;;;-147.18;100.00;67318.16;5023581;28;20335;-78
2022/08/31 11:28:39;;;;;;;;;;;22.90;81.60;;;-147.18;100.00;67318.16;5030168;28;19925;-79